SPSAV EPKK-EPKK
Flight info
| Callsign | SPSAV |
|---|---|
| Flight time | 0h 41m |
| Altitude | 1500 |
| Route | DTC |
| Aircraft | C172/L-SDGRY/S |
Departure
| Time | 2026-05-05 16:37 |
|---|---|
| Airport | Kraków John Paul II International Airport (EPKK) |
Arrival
| Time | 2026-05-05 17:18 |
|---|---|
| Airport | Kraków John Paul II International Airport (EPKK) |
| Time | Latitude | Longitude | Altitude | Speed | Heading |
|---|---|---|---|---|---|
| 2026-05-05 15:57 | 50.07689 | 19.80077 | 794 ft | 0 kts | 348° |
| 2026-05-05 16:23 | 50.08001 | 19.80116 | 795 ft | 0 kts | 258° |
| 2026-05-05 16:25 | 50.07689 | 19.80077 | 794 ft | 0 kts | 348° |
| 2026-05-05 16:33 | 50.07695 | 19.80074 | 794 ft | 7 kts | 343° |
| 2026-05-05 16:33 | 50.07750 | 19.80145 | 794 ft | 16 kts | 77° |
| 2026-05-05 16:33 | 50.07781 | 19.80329 | 795 ft | 18 kts | 50° |
| 2026-05-05 16:34 | 50.07859 | 19.80332 | 795 ft | 0 kts | 344° |
| 2026-05-05 16:34 | 50.07871 | 19.80328 | 795 ft | 8 kts | 347° |
| 2026-05-05 16:35 | 50.07963 | 19.80292 | 794 ft | 18 kts | 343° |
| 2026-05-05 16:35 | 50.08003 | 19.80134 | 795 ft | 10 kts | 258° |
| 2026-05-05 16:35 | 50.08002 | 19.80127 | 795 ft | 0 kts | 259° |
| 2026-05-05 16:35 | 50.08002 | 19.80126 | 795 ft | 2 kts | 259° |
| 2026-05-05 16:36 | 50.07958 | 19.79813 | 795 ft | 57 kts | 256° |
| 2026-05-05 16:36 | 50.07852 | 19.78990 | 859 ft | 89 kts | 251° |
| 2026-05-05 16:36 | 50.07684 | 19.78029 | 1059 ft | 99 kts | 252° |
| 2026-05-05 16:36 | 50.07508 | 19.76923 | 1274 ft | 105 kts | 250° |
| 2026-05-05 16:37 | 50.07368 | 19.75859 | 1572 ft | 105 kts | 263° |
| 2026-05-05 16:37 | 50.07710 | 19.74832 | 1511 ft | 130 kts | 328° |
| 2026-05-05 16:37 | 50.08560 | 19.74518 | 1628 ft | 115 kts | 351° |
| 2026-05-05 16:37 | 50.09303 | 19.74640 | 1616 ft | 118 kts | 34° |
| 2026-05-05 16:38 | 50.09654 | 19.75804 | 1582 ft | 116 kts | 85° |
| 2026-05-05 16:38 | 50.09825 | 19.76944 | 1672 ft | 110 kts | 76° |
| 2026-05-05 16:38 | 50.10046 | 19.78136 | 1681 ft | 118 kts | 76° |
| 2026-05-05 16:38 | 50.10320 | 19.79385 | 1747 ft | 123 kts | 75° |
| 2026-05-05 16:39 | 50.10608 | 19.80643 | 1858 ft | 127 kts | 72° |
| 2026-05-05 16:39 | 50.10927 | 19.81958 | 1844 ft | 132 kts | 72° |
| 2026-05-05 16:39 | 50.11181 | 19.83284 | 1788 ft | 123 kts | 79° |
| 2026-05-05 16:39 | 50.11351 | 19.84542 | 1735 ft | 120 kts | 109° |
| 2026-05-05 16:40 | 50.10842 | 19.85408 | 1608 ft | 108 kts | 160° |
| 2026-05-05 16:40 | 50.10166 | 19.85739 | 1578 ft | 99 kts | 167° |
| 2026-05-05 16:40 | 50.09507 | 19.86031 | 1523 ft | 96 kts | 171° |
| 2026-05-05 16:40 | 50.08942 | 19.85593 | 1405 ft | 99 kts | 230° |
| 2026-05-05 16:41 | 50.08622 | 19.84688 | 1269 ft | 96 kts | 251° |
| 2026-05-05 16:41 | 50.08520 | 19.83647 | 1185 ft | 94 kts | 251° |
| 2026-05-05 16:41 | 50.08395 | 19.82747 | 1092 ft | 74 kts | 250° |
| 2026-05-05 16:41 | 50.08276 | 19.82036 | 982 ft | 64 kts | 255° |
| 2026-05-05 16:42 | 50.08184 | 19.81360 | 938 ft | 64 kts | 253° |
| 2026-05-05 16:42 | 50.08086 | 19.80708 | 868 ft | 62 kts | 249° |
| 2026-05-05 16:42 | 50.07999 | 19.80041 | 834 ft | 63 kts | 249° |
| 2026-05-05 16:42 | 50.07902 | 19.79376 | 802 ft | 61 kts | 249° |
| 2026-05-05 16:43 | 50.07808 | 19.78752 | 798 ft | 69 kts | 260° |
| 2026-05-05 16:43 | 50.07686 | 19.77881 | 889 ft | 95 kts | 253° |
| 2026-05-05 16:43 | 50.07540 | 19.76824 | 1108 ft | 102 kts | 253° |
| 2026-05-05 16:43 | 50.07412 | 19.75693 | 1228 ft | 117 kts | 259° |
| 2026-05-05 16:44 | 50.07256 | 19.74353 | 1217 ft | 132 kts | 255° |
| 2026-05-05 16:44 | 50.07116 | 19.72972 | 1386 ft | 129 kts | 271° |
| 2026-05-05 16:44 | 50.07647 | 19.71816 | 1517 ft | 143 kts | 331° |
| 2026-05-05 16:44 | 50.08611 | 19.71320 | 1529 ft | 154 kts | 352° |
| 2026-05-05 16:45 | 50.09615 | 19.71647 | 1579 ft | 140 kts | 32° |
| 2026-05-05 16:45 | 50.10128 | 19.72807 | 1665 ft | 127 kts | 74° |
| 2026-05-05 16:45 | 50.10373 | 19.74123 | 1778 ft | 127 kts | 76° |
| 2026-05-05 16:45 | 50.10633 | 19.75450 | 1786 ft | 128 kts | 75° |
| 2026-05-05 16:46 | 50.10873 | 19.76786 | 1797 ft | 129 kts | 76° |
| 2026-05-05 16:46 | 50.11160 | 19.78143 | 1777 ft | 135 kts | 66° |
| 2026-05-05 16:46 | 50.11675 | 19.79387 | 1782 ft | 139 kts | 75° |
| 2026-05-05 16:46 | 50.11844 | 19.80896 | 1753 ft | 139 kts | 87° |
| 2026-05-05 16:47 | 50.11912 | 19.82381 | 1660 ft | 141 kts | 88° |
| 2026-05-05 16:47 | 50.11971 | 19.83892 | 1636 ft | 132 kts | 105° |
| 2026-05-05 16:47 | 50.11437 | 19.84845 | 1489 ft | 115 kts | 165° |
| 2026-05-05 16:47 | 50.10710 | 19.85052 | 1405 ft | 104 kts | 172° |
| 2026-05-05 16:48 | 50.10002 | 19.85270 | 1323 ft | 103 kts | 170° |
| 2026-05-05 16:48 | 50.09329 | 19.85340 | 1286 ft | 94 kts | 204° |
| 2026-05-05 16:48 | 50.08859 | 19.84672 | 1100 ft | 94 kts | 234° |
| 2026-05-05 16:48 | 50.08578 | 19.83666 | 1153 ft | 103 kts | 246° |
| 2026-05-05 16:49 | 50.08407 | 19.82661 | 1066 ft | 90 kts | 252° |
| 2026-05-05 16:49 | 50.08242 | 19.81781 | 988 ft | 89 kts | 253° |
| 2026-05-05 16:49 | 50.08124 | 19.80905 | 899 ft | 78 kts | 251° |
| 2026-05-05 16:49 | 50.08003 | 19.80101 | 808 ft | 75 kts | 252° |
| 2026-05-05 16:50 | 50.07898 | 19.79371 | 794 ft | 63 kts | 251° |
| 2026-05-05 16:50 | 50.07782 | 19.78545 | 902 ft | 88 kts | 252° |
| 2026-05-05 16:50 | 50.07640 | 19.77525 | 1039 ft | 105 kts | 256° |
| 2026-05-05 16:50 | 50.07476 | 19.76345 | 1155 ft | 118 kts | 256° |
| 2026-05-05 16:51 | 50.07147 | 19.75173 | 1306 ft | 122 kts | 221° |
| 2026-05-05 16:51 | 50.06372 | 19.74937 | 1505 ft | 116 kts | 170° |
| 2026-05-05 16:51 | 50.05594 | 19.75291 | 1702 ft | 117 kts | 164° |
| 2026-05-05 16:51 | 50.04848 | 19.75872 | 1784 ft | 132 kts | 136° |
| 2026-05-05 16:52 | 50.04615 | 19.77256 | 1781 ft | 135 kts | 83° |
| 2026-05-05 16:52 | 50.04798 | 19.78686 | 1793 ft | 133 kts | 79° |
| 2026-05-05 16:52 | 50.04977 | 19.80083 | 1781 ft | 128 kts | 77° |
| 2026-05-05 16:52 | 50.05198 | 19.81352 | 1784 ft | 117 kts | 75° |
| 2026-05-05 16:53 | 50.05418 | 19.82534 | 1785 ft | 112 kts | 74° |
| 2026-05-05 16:53 | 50.05841 | 19.83455 | 1765 ft | 105 kts | 15° |
| 2026-05-05 16:53 | 50.06516 | 19.83436 | 1816 ft | 96 kts | 341° |
| 2026-05-05 16:53 | 50.07195 | 19.83226 | 1685 ft | 103 kts | 341° |
| 2026-05-05 16:54 | 50.07848 | 19.82911 | 1541 ft | 97 kts | 316° |
| 2026-05-05 16:54 | 50.08203 | 19.82069 | 1339 ft | 96 kts | 275° |
| 2026-05-05 16:54 | 50.08157 | 19.81088 | 1093 ft | 91 kts | 250° |
| 2026-05-05 16:54 | 50.08013 | 19.80157 | 879 ft | 83 kts | 251° |
| 2026-05-05 16:55 | 50.07895 | 19.79344 | 798 ft | 68 kts | 253° |
| 2026-05-05 16:55 | 50.07802 | 19.78693 | 807 ft | 71 kts | 253° |
| 2026-05-05 16:55 | 50.07688 | 19.77840 | 986 ft | 88 kts | 253° |
| 2026-05-05 16:55 | 50.07539 | 19.76858 | 1189 ft | 99 kts | 249° |
| 2026-05-05 16:56 | 50.07305 | 19.75785 | 1389 ft | 108 kts | 231° |
| 2026-05-05 16:56 | 50.06607 | 19.75449 | 1580 ft | 112 kts | 171° |
| 2026-05-05 16:56 | 50.05840 | 19.75676 | 1766 ft | 115 kts | 171° |
| 2026-05-05 16:56 | 50.05068 | 19.76155 | 1793 ft | 131 kts | 137° |
| 2026-05-05 16:57 | 50.04816 | 19.77494 | 1796 ft | 136 kts | 84° |
| 2026-05-05 16:57 | 50.05065 | 19.78944 | 1800 ft | 142 kts | 78° |
| 2026-05-05 16:57 | 50.05303 | 19.80445 | 1802 ft | 144 kts | 78° |
| 2026-05-05 16:57 | 50.05532 | 19.81962 | 1804 ft | 146 kts | 79° |
| 2026-05-05 16:58 | 50.05793 | 19.83495 | 1803 ft | 147 kts | 76° |
| 2026-05-05 16:58 | 50.06113 | 19.85033 | 1787 ft | 149 kts | 57° |
| 2026-05-05 16:58 | 50.06910 | 19.85806 | 1788 ft | 130 kts | 0° |
| 2026-05-05 16:58 | 50.07796 | 19.85725 | 1787 ft | 127 kts | 352° |
| 2026-05-05 16:59 | 50.08613 | 19.85413 | 1615 ft | 119 kts | 325° |
| 2026-05-05 16:59 | 50.09075 | 19.84470 | 1472 ft | 106 kts | 276° |
| 2026-05-05 16:59 | 50.08861 | 19.83469 | 1314 ft | 98 kts | 224° |
| 2026-05-05 16:59 | 50.08457 | 19.82645 | 1150 ft | 96 kts | 235° |
| 2026-05-05 17:00 | 50.08240 | 19.81701 | 976 ft | 88 kts | 254° |
| 2026-05-05 17:00 | 50.08104 | 19.80803 | 893 ft | 83 kts | 252° |
| 2026-05-05 17:00 | 50.07987 | 19.79995 | 809 ft | 71 kts | 252° |
| 2026-05-05 17:00 | 50.07890 | 19.79321 | 794 ft | 56 kts | 253° |
| 2026-05-05 17:01 | 50.07789 | 19.78619 | 816 ft | 85 kts | 252° |
| 2026-05-05 17:01 | 50.07677 | 19.77600 | 940 ft | 103 kts | 250° |
| 2026-05-05 17:01 | 50.07481 | 19.76514 | 1174 ft | 107 kts | 252° |
| 2026-05-05 17:01 | 50.07234 | 19.75413 | 1394 ft | 110 kts | 225° |
| 2026-05-05 17:02 | 50.06514 | 19.75160 | 1601 ft | 110 kts | 171° |
| 2026-05-05 17:02 | 50.05754 | 19.75414 | 1773 ft | 115 kts | 156° |
| 2026-05-05 17:02 | 50.05299 | 19.76502 | 1793 ft | 135 kts | 97° |
| 2026-05-05 17:02 | 50.05483 | 19.78005 | 1809 ft | 148 kts | 77° |
| 2026-05-05 17:03 | 50.05710 | 19.79510 | 1800 ft | 136 kts | 78° |
| 2026-05-05 17:03 | 50.05907 | 19.80901 | 1799 ft | 130 kts | 78° |
| 2026-05-05 17:03 | 50.06119 | 19.82273 | 1792 ft | 130 kts | 78° |
| 2026-05-05 17:03 | 50.06342 | 19.83653 | 1789 ft | 134 kts | 78° |
| 2026-05-05 17:04 | 50.06649 | 19.84985 | 1784 ft | 131 kts | 50° |
| 2026-05-05 17:04 | 50.07439 | 19.85467 | 1806 ft | 123 kts | 350° |
| 2026-05-05 17:04 | 50.08239 | 19.85155 | 1872 ft | 117 kts | 340° |
| 2026-05-05 17:04 | 50.08845 | 19.84434 | 1644 ft | 116 kts | 282° |
| 2026-05-05 17:05 | 50.08649 | 19.83309 | 1395 ft | 106 kts | 240° |
| 2026-05-05 17:05 | 50.08375 | 19.82270 | 1149 ft | 102 kts | 245° |
| 2026-05-05 17:05 | 50.08183 | 19.81276 | 981 ft | 91 kts | 253° |
| 2026-05-05 17:05 | 50.08030 | 19.80314 | 835 ft | 94 kts | 251° |
| 2026-05-05 17:06 | 50.07898 | 19.79397 | 794 ft | 78 kts | 255° |
| 2026-05-05 17:06 | 50.07799 | 19.78670 | 796 ft | 69 kts | 255° |
| 2026-05-05 17:06 | 50.07675 | 19.77735 | 867 ft | 102 kts | 253° |
| 2026-05-05 17:06 | 50.07501 | 19.76580 | 1027 ft | 115 kts | 250° |
| 2026-05-05 17:07 | 50.07299 | 19.75336 | 1203 ft | 121 kts | 254° |
| 2026-05-05 17:07 | 50.07074 | 19.74049 | 1371 ft | 124 kts | 243° |
| 2026-05-05 17:07 | 50.06426 | 19.73306 | 1504 ft | 119 kts | 185° |
| 2026-05-05 17:07 | 50.05614 | 19.73483 | 1653 ft | 118 kts | 168° |
| 2026-05-05 17:08 | 50.04833 | 19.73882 | 1776 ft | 122 kts | 153° |
| 2026-05-05 17:08 | 50.04409 | 19.75103 | 1786 ft | 142 kts | 94° |
| 2026-05-05 17:08 | 50.04594 | 19.76616 | 1799 ft | 142 kts | 76° |
| 2026-05-05 17:08 | 50.04858 | 19.78102 | 1800 ft | 145 kts | 75° |
| 2026-05-05 17:09 | 50.05039 | 19.79111 | 1804 ft | 147 kts | 75° |
| 2026-05-05 17:09 | 50.05299 | 19.80653 | 1802 ft | 148 kts | 76° |
| 2026-05-05 17:09 | 50.05659 | 19.82715 | 1805 ft | 149 kts | 76° |
| 2026-05-05 17:09 | 50.05850 | 19.83752 | 1807 ft | 149 kts | 76° |
| 2026-05-05 17:10 | 50.06120 | 19.85302 | 1794 ft | 146 kts | 76° |
| 2026-05-05 17:10 | 50.06498 | 19.86713 | 1787 ft | 143 kts | 49° |
| 2026-05-05 17:10 | 50.07374 | 19.87253 | 1783 ft | 137 kts | 352° |
| 2026-05-05 17:10 | 50.08298 | 19.87037 | 1798 ft | 134 kts | 346° |
| 2026-05-05 17:11 | 50.09182 | 19.86738 | 1744 ft | 123 kts | 316° |
| 2026-05-05 17:11 | 50.09345 | 19.85562 | 1523 ft | 120 kts | 239° |
| 2026-05-05 17:11 | 50.08859 | 19.84567 | 1322 ft | 110 kts | 233° |
| 2026-05-05 17:11 | 50.08531 | 19.83472 | 1162 ft | 128 kts | 245° |
| 2026-05-05 17:12 | 50.08327 | 19.82208 | 1038 ft | 109 kts | 253° |
| 2026-05-05 17:12 | 50.08151 | 19.81127 | 887 ft | 100 kts | 246° |
| 2026-05-05 17:12 | 50.08008 | 19.80160 | 813 ft | 82 kts | 252° |
| 2026-05-05 17:12 | 50.07901 | 19.79399 | 794 ft | 62 kts | 257° |
| 2026-05-05 17:13 | 50.07817 | 19.78795 | 797 ft | 70 kts | 250° |
| 2026-05-05 17:13 | 50.07692 | 19.77884 | 852 ft | 99 kts | 257° |
| 2026-05-05 17:13 | 50.07598 | 19.76740 | 1026 ft | 112 kts | 257° |
| 2026-05-05 17:13 | 50.07511 | 19.75490 | 1238 ft | 118 kts | 262° |
| 2026-05-05 17:14 | 50.07306 | 19.74259 | 1453 ft | 117 kts | 227° |
| 2026-05-05 17:14 | 50.06593 | 19.73884 | 1655 ft | 115 kts | 174° |
| 2026-05-05 17:14 | 50.05791 | 19.74087 | 1789 ft | 123 kts | 174° |
| 2026-05-05 17:14 | 50.04895 | 19.74316 | 1798 ft | 136 kts | 174° |
| 2026-05-05 17:15 | 50.04077 | 19.75071 | 1786 ft | 148 kts | 128° |
| 2026-05-05 17:15 | 50.03885 | 19.76647 | 1797 ft | 151 kts | 86° |
| 2026-05-05 17:15 | 50.04092 | 19.78186 | 1798 ft | 144 kts | 75° |
| 2026-05-05 17:15 | 50.04369 | 19.79700 | 1795 ft | 146 kts | 75° |
| 2026-05-05 17:16 | 50.04626 | 19.81220 | 1791 ft | 145 kts | 76° |
| 2026-05-05 17:16 | 50.04924 | 19.82716 | 1787 ft | 146 kts | 64° |
| 2026-05-05 17:16 | 50.05662 | 19.83643 | 1788 ft | 130 kts | 15° |
| 2026-05-05 17:16 | 50.06479 | 19.84025 | 1692 ft | 116 kts | 8° |
| 2026-05-05 17:17 | 50.07264 | 19.84089 | 1580 ft | 111 kts | 351° |
| 2026-05-05 17:17 | 50.07998 | 19.83816 | 1514 ft | 105 kts | 326° |
| 2026-05-05 17:17 | 50.08467 | 19.83025 | 1369 ft | 97 kts | 270° |
| 2026-05-05 17:17 | 50.08351 | 19.82059 | 1172 ft | 76 kts | 250° |
| 2026-05-05 17:18 | 50.08204 | 19.81352 | 1022 ft | 66 kts | 247° |
| 2026-05-05 17:18 | 50.08097 | 19.80655 | 874 ft | 66 kts | 249° |
| 2026-05-05 17:18 | 50.07987 | 19.79976 | 800 ft | 60 kts | 248° |
| 2026-05-05 17:18 | 50.07913 | 19.79459 | 794 ft | 39 kts | 258° |
| 2026-05-05 17:19 | 50.07858 | 19.79114 | 795 ft | 25 kts | 250° |
| 2026-05-05 17:19 | 50.07773 | 19.79080 | 795 ft | 12 kts | 166° |
| 2026-05-05 17:19 | 50.07744 | 19.79089 | 795 ft | 0 kts | 167° |
| 2026-05-05 17:20 | 50.07724 | 19.79096 | 795 ft | 10 kts | 170° |
| 2026-05-05 17:20 | 50.07621 | 19.79149 | 794 ft | 20 kts | 126° |
| 2026-05-05 17:21 | 50.07648 | 19.79410 | 794 ft | 32 kts | 79° |
| 2026-05-05 17:21 | 50.07689 | 19.79704 | 794 ft | 13 kts | 78° |
| 2026-05-05 17:21 | 50.07706 | 19.79830 | 794 ft | 11 kts | 91° |
| 2026-05-05 17:22 | 50.07624 | 19.79897 | 794 ft | 4 kts | 152° |
| 2026-05-05 17:22 | 50.07611 | 19.79977 | 794 ft | 12 kts | 76° |
| 2026-05-05 17:22 | 50.07637 | 19.80095 | 794 ft | 9 kts | 343° |
| 2026-05-05 17:22 | 50.07686 | 19.80078 | 795 ft | 0 kts | 354° |
| 2026-05-05 17:23 | 50.07690 | 19.80076 | 794 ft | 0 kts | 347° |